sensor_id;sensor_type;location;lat;lon;timestamp;P1;durP1;ratioP1;P2;durP2;ratioP2
35056;SDS011;21241;51.828;19.574;2023-05-29T00:02:02;2.70;;;2.10;;
35056;SDS011;21241;51.828;19.574;2023-05-29T00:04:30;4.60;;;2.40;;
35056;SDS011;21241;51.828;19.574;2023-05-29T00:06:58;3.70;;;2.40;;
35056;SDS011;21241;51.828;19.574;2023-05-29T00:09:25;4.20;;;2.60;;
35056;SDS011;21241;51.828;19.574;2023-05-29T00:11:53;3.90;;;2.30;;
35056;SDS011;21241;51.828;19.574;2023-05-29T00:14:21;2.50;;;2.30;;
35056;SDS011;21241;51.828;19.574;2023-05-29T00:16:51;3.70;;;2.40;;
35056;SDS011;21241;51.828;19.574;2023-05-29T00:19:19;5.40;;;2.70;;
35056;SDS011;21241;51.828;19.574;2023-05-29T00:21:47;4.40;;;2.40;;
35056;SDS011;21241;51.828;19.574;2023-05-29T00:24:16;2.30;;;2.10;;
35056;SDS011;21241;51.828;19.574;2023-05-29T00:26:44;2.50;;;2.00;;
35056;SDS011;21241;51.828;19.574;2023-05-29T00:29:12;2.40;;;2.10;;
35056;SDS011;21241;51.828;19.574;2023-05-29T00:31:40;2.70;;;2.00;;
35056;SDS011;21241;51.828;19.574;2023-05-29T00:34:08;2.70;;;2.10;;
35056;SDS011;21241;51.828;19.574;2023-05-29T00:36:36;3.30;;;2.30;;
35056;SDS011;21241;51.828;19.574;2023-05-29T00:39:04;2.80;;;2.00;;
35056;SDS011;21241;51.828;19.574;2023-05-29T00:41:32;3.40;;;1.80;;
35056;SDS011;21241;51.828;19.574;2023-05-29T00:44:00;3.70;;;2.00;;
35056;SDS011;21241;51.828;19.574;2023-05-29T00:46:28;3.10;;;1.80;;
35056;SDS011;21241;51.828;19.574;2023-05-29T00:48:56;2.90;;;2.00;;
35056;SDS011;21241;51.828;19.574;2023-05-29T00:51:25;2.90;;;2.20;;
35056;SDS011;21241;51.828;19.574;2023-05-29T00:53:54;4.10;;;2.20;;
35056;SDS011;21241;51.828;19.574;2023-05-29T00:56:21;2.60;;;2.10;;
35056;SDS011;21241;51.828;19.574;2023-05-29T00:58:49;3.80;;;2.10;;
35056;SDS011;21241;51.828;19.574;2023-05-29T01:01:17;3.50;;;2.10;;
35056;SDS011;21241;51.828;19.574;2023-05-29T01:03:46;2.70;;;2.40;;
35056;SDS011;21241;51.828;19.574;2023-05-29T01:06:16;4.20;;;2.30;;
35056;SDS011;21241;51.828;19.574;2023-05-29T01:08:44;3.40;;;2.40;;
35056;SDS011;21241;51.828;19.574;2023-05-29T01:11:14;2.90;;;2.50;;
35056;SDS011;21241;51.828;19.574;2023-05-29T01:13:53;3.10;;;2.70;;
35056;SDS011;21241;51.828;19.574;2023-05-29T01:22:13;3.10;;;2.40;;
35056;SDS011;21241;51.828;19.574;2023-05-29T01:25:40;4.20;;;2.50;;
35056;SDS011;21241;51.828;19.574;2023-05-29T01:27:51;2.30;;;2.00;;
35056;SDS011;21241;51.828;19.574;2023-05-29T01:30:19;4.80;;;2.40;;
35056;SDS011;21241;51.828;19.574;2023-05-29T01:32:50;4.00;;;2.30;;
35056;SDS011;21241;51.828;19.574;2023-05-29T01:35:19;2.20;;;2.10;;
35056;SDS011;21241;51.828;19.574;2023-05-29T01:37:47;2.20;;;2.00;;
35056;SDS011;21241;51.828;19.574;2023-05-29T01:40:15;3.30;;;2.30;;
35056;SDS011;21241;51.828;19.574;2023-05-29T01:42:45;2.90;;;2.50;;
35056;SDS011;21241;51.828;19.574;2023-05-29T01:45:14;3.20;;;2.40;;
35056;SDS011;21241;51.828;19.574;2023-05-29T01:47:42;2.70;;;2.50;;
35056;SDS011;21241;51.828;19.574;2023-05-29T01:50:10;3.10;;;2.50;;
35056;SDS011;21241;51.828;19.574;2023-05-29T01:52:38;3.90;;;3.00;;
35056;SDS011;21241;51.828;19.574;2023-05-29T01:55:06;4.90;;;2.40;;
35056;SDS011;21241;51.828;19.574;2023-05-29T01:57:35;3.10;;;2.30;;
35056;SDS011;21241;51.828;19.574;2023-05-29T02:00:03;3.10;;;2.50;;
35056;SDS011;21241;51.828;19.574;2023-05-29T02:02:42;4.40;;;2.90;;
35056;SDS011;21241;51.828;19.574;2023-05-29T02:05:10;3.50;;;2.60;;
35056;SDS011;21241;51.828;19.574;2023-05-29T02:07:38;3.00;;;2.60;;
35056;SDS011;21241;51.828;19.574;2023-05-29T02:10:06;3.30;;;2.20;;
35056;SDS011;21241;51.828;19.574;2023-05-29T02:12:34;4.70;;;3.10;;
35056;SDS011;21241;51.828;19.574;2023-05-29T02:15:02;5.00;;;3.30;;
35056;SDS011;21241;51.828;19.574;2023-05-29T02:17:31;3.80;;;3.40;;
35056;SDS011;21241;51.828;19.574;2023-05-29T02:20:01;4.20;;;3.00;;
35056;SDS011;21241;51.828;19.574;2023-05-29T02:22:31;4.00;;;2.90;;
35056;SDS011;21241;51.828;19.574;2023-05-29T02:25:00;3.00;;;2.80;;
35056;SDS011;21241;51.828;19.574;2023-05-29T02:27:27;3.50;;;3.20;;
35056;SDS011;21241;51.828;19.574;2023-05-29T02:29:56;4.60;;;3.30;;
35056;SDS011;21241;51.828;19.574;2023-05-29T02:32:23;3.10;;;2.70;;
35056;SDS011;21241;51.828;19.574;2023-05-29T02:34:51;3.90;;;2.80;;
35056;SDS011;21241;51.828;19.574;2023-05-29T02:37:19;4.90;;;3.20;;
35056;SDS011;21241;51.828;19.574;2023-05-29T02:39:50;4.70;;;2.90;;
35056;SDS011;21241;51.828;19.574;2023-05-29T02:42:18;4.40;;;2.70;;
35056;SDS011;21241;51.828;19.574;2023-05-29T02:44:46;4.40;;;3.30;;
35056;SDS011;21241;51.828;19.574;2023-05-29T02:47:14;4.30;;;2.90;;
35056;SDS011;21241;51.828;19.574;2023-05-29T02:49:42;3.10;;;2.50;;
35056;SDS011;21241;51.828;19.574;2023-05-29T02:52:10;3.30;;;3.00;;
35056;SDS011;21241;51.828;19.574;2023-05-29T02:54:38;3.10;;;2.80;;
35056;SDS011;21241;51.828;19.574;2023-05-29T02:57:05;3.20;;;2.90;;
35056;SDS011;21241;51.828;19.574;2023-05-29T02:59:33;3.30;;;3.00;;
35056;SDS011;21241;51.828;19.574;2023-05-29T03:02:01;5.40;;;3.30;;
35056;SDS011;21241;51.828;19.574;2023-05-29T03:04:29;4.90;;;3.20;;
35056;SDS011;21241;51.828;19.574;2023-05-29T03:06:57;6.20;;;3.90;;
35056;SDS011;21241;51.828;19.574;2023-05-29T03:09:24;6.00;;;4.10;;
35056;SDS011;21241;51.828;19.574;2023-05-29T03:11:52;5.50;;;3.90;;
35056;SDS011;21241;51.828;19.574;2023-05-29T03:14:20;4.00;;;3.50;;
35056;SDS011;21241;51.828;19.574;2023-05-29T03:16:49;3.90;;;3.10;;
35056;SDS011;21241;51.828;19.574;2023-05-29T03:19:17;4.40;;;3.00;;
35056;SDS011;21241;51.828;19.574;2023-05-29T03:21:45;3.20;;;2.90;;
35056;SDS011;21241;51.828;19.574;2023-05-29T03:24:13;3.90;;;3.50;;
35056;SDS011;21241;51.828;19.574;2023-05-29T03:26:41;3.50;;;3.20;;
35056;SDS011;21241;51.828;19.574;2023-05-29T03:29:10;3.00;;;2.70;;
35056;SDS011;21241;51.828;19.574;2023-05-29T03:31:37;4.60;;;2.90;;
35056;SDS011;21241;51.828;19.574;2023-05-29T03:34:05;4.00;;;2.90;;
35056;SDS011;21241;51.828;19.574;2023-05-29T03:36:42;4.00;;;3.30;;
35056;SDS011;21241;51.828;19.574;2023-05-29T03:39:10;4.80;;;3.40;;
35056;SDS011;21241;51.828;19.574;2023-05-29T03:41:40;3.50;;;3.20;;
35056;SDS011;21241;51.828;19.574;2023-05-29T03:44:07;3.70;;;3.30;;
35056;SDS011;21241;51.828;19.574;2023-05-29T03:46:35;3.60;;;3.20;;
35056;SDS011;21241;51.828;19.574;2023-05-29T03:49:04;3.50;;;3.00;;
35056;SDS011;21241;51.828;19.574;2023-05-29T03:51:35;4.00;;;3.30;;
35056;SDS011;21241;51.828;19.574;2023-05-29T03:54:03;3.80;;;3.30;;
35056;SDS011;21241;51.828;19.574;2023-05-29T03:56:33;3.40;;;3.10;;
35056;SDS011;21241;51.828;19.574;2023-05-29T03:59:00;3.30;;;3.00;;
35056;SDS011;21241;51.828;19.574;2023-05-29T04:01:28;3.20;;;2.90;;
35056;SDS011;21241;51.828;19.574;2023-05-29T04:03:56;3.70;;;2.80;;
35056;SDS011;21241;51.828;19.574;2023-05-29T04:06:24;3.30;;;2.40;;
35056;SDS011;21241;51.828;19.574;2023-05-29T04:08:52;3.70;;;3.40;;
35056;SDS011;21241;51.828;19.574;2023-05-29T04:11:20;5.70;;;3.50;;
35056;SDS011;21241;51.828;19.574;2023-05-29T04:13:48;4.40;;;2.90;;
35056;SDS011;21241;51.828;19.574;2023-05-29T04:16:16;6.00;;;2.80;;
35056;SDS011;21241;51.828;19.574;2023-05-29T04:18:44;7.40;;;4.00;;
35056;SDS011;21241;51.828;19.574;2023-05-29T04:21:11;12.50;;;5.10;;
35056;SDS011;21241;51.828;19.574;2023-05-29T04:23:39;6.00;;;3.60;;
35056;SDS011;21241;51.828;19.574;2023-05-29T04:26:07;6.00;;;3.60;;
35056;SDS011;21241;51.828;19.574;2023-05-29T04:28:36;7.20;;;3.80;;
35056;SDS011;21241;51.828;19.574;2023-05-29T04:31:05;4.40;;;3.20;;
35056;SDS011;21241;51.828;19.574;2023-05-29T04:33:33;4.20;;;3.40;;
35056;SDS011;21241;51.828;19.574;2023-05-29T04:36:04;5.10;;;3.20;;
35056;SDS011;21241;51.828;19.574;2023-05-29T04:38:33;3.60;;;3.30;;
35056;SDS011;21241;51.828;19.574;2023-05-29T04:41:01;18.80;;;6.70;;
35056;SDS011;21241;51.828;19.574;2023-05-29T04:43:29;6.90;;;3.30;;
35056;SDS011;21241;51.828;19.574;2023-05-29T04:46:00;5.70;;;3.40;;
35056;SDS011;21241;51.828;19.574;2023-05-29T04:48:31;3.50;;;2.90;;
35056;SDS011;21241;51.828;19.574;2023-05-29T04:50:59;4.60;;;3.10;;
35056;SDS011;21241;51.828;19.574;2023-05-29T04:53:27;3.30;;;2.90;;
35056;SDS011;21241;51.828;19.574;2023-05-29T04:55:55;3.70;;;2.80;;
35056;SDS011;21241;51.828;19.574;2023-05-29T04:58:26;4.40;;;3.50;;
35056;SDS011;21241;51.828;19.574;2023-05-29T05:00:54;5.90;;;3.10;;
35056;SDS011;21241;51.828;19.574;2023-05-29T05:03:27;6.80;;;3.10;;
35056;SDS011;21241;51.828;19.574;2023-05-29T05:05:55;5.70;;;3.40;;
35056;SDS011;21241;51.828;19.574;2023-05-29T05:08:23;4.40;;;3.10;;
35056;SDS011;21241;51.828;19.574;2023-05-29T05:10:51;4.30;;;3.30;;
35056;SDS011;21241;51.828;19.574;2023-05-29T05:13:19;4.10;;;2.50;;
35056;SDS011;21241;51.828;19.574;2023-05-29T05:15:47;5.10;;;3.00;;
35056;SDS011;21241;51.828;19.574;2023-05-29T05:18:15;3.50;;;3.00;;
35056;SDS011;21241;51.828;19.574;2023-05-29T05:20:48;2.50;;;2.30;;
35056;SDS011;21241;51.828;19.574;2023-05-29T05:23:16;5.10;;;3.10;;
35056;SDS011;21241;51.828;19.574;2023-05-29T05:25:44;3.40;;;3.10;;
35056;SDS011;21241;51.828;19.574;2023-05-29T05:28:12;3.80;;;3.00;;
35056;SDS011;21241;51.828;19.574;2023-05-29T05:30:40;4.80;;;3.10;;
35056;SDS011;21241;51.828;19.574;2023-05-29T05:33:08;4.10;;;3.20;;
35056;SDS011;21241;51.828;19.574;2023-05-29T05:35:37;4.10;;;3.10;;
35056;SDS011;21241;51.828;19.574;2023-05-29T05:38:05;4.20;;;2.60;;
35056;SDS011;21241;51.828;19.574;2023-05-29T05:40:33;3.50;;;2.10;;
35056;SDS011;21241;51.828;19.574;2023-05-29T05:43:10;3.20;;;2.00;;
35056;SDS011;21241;51.828;19.574;2023-05-29T05:46:04;3.30;;;2.10;;
35056;SDS011;21241;51.828;19.574;2023-05-29T05:48:33;2.50;;;2.10;;
35056;SDS011;21241;51.828;19.574;2023-05-29T05:51:02;3.20;;;2.30;;
35056;SDS011;21241;51.828;19.574;2023-05-29T05:53:30;3.30;;;2.10;;
35056;SDS011;21241;51.828;19.574;2023-05-29T05:55:58;2.30;;;2.00;;
35056;SDS011;21241;51.828;19.574;2023-05-29T05:58:26;3.50;;;2.00;;
35056;SDS011;21241;51.828;19.574;2023-05-29T06:00:56;2.40;;;2.00;;
35056;SDS011;21241;51.828;19.574;2023-05-29T06:03:25;3.00;;;2.10;;
35056;SDS011;21241;51.828;19.574;2023-05-29T06:06:00;3.70;;;2.20;;
35056;SDS011;21241;51.828;19.574;2023-05-29T06:08:29;3.80;;;2.30;;
35056;SDS011;21241;51.828;19.574;2023-05-29T06:10:58;2.40;;;2.20;;
35056;SDS011;21241;51.828;19.574;2023-05-29T06:13:25;3.40;;;2.30;;
35056;SDS011;21241;51.828;19.574;2023-05-29T06:16:00;4.10;;;2.30;;
35056;SDS011;21241;51.828;19.574;2023-05-29T06:18:28;4.40;;;2.50;;
35056;SDS011;21241;51.828;19.574;2023-05-29T06:20:56;3.70;;;2.20;;
35056;SDS011;21241;51.828;19.574;2023-05-29T06:23:25;3.00;;;2.10;;
35056;SDS011;21241;51.828;19.574;2023-05-29T06:25:53;3.20;;;2.40;;
35056;SDS011;21241;51.828;19.574;2023-05-29T06:28:21;3.30;;;2.30;;
35056;SDS011;21241;51.828;19.574;2023-05-29T06:30:49;3.00;;;2.50;;
35056;SDS011;21241;51.828;19.574;2023-05-29T06:33:17;3.00;;;2.30;;
35056;SDS011;21241;51.828;19.574;2023-05-29T06:35:45;3.50;;;2.70;;
35056;SDS011;21241;51.828;19.574;2023-05-29T06:38:16;4.10;;;2.20;;
35056;SDS011;21241;51.828;19.574;2023-05-29T06:40:45;4.10;;;2.40;;
35056;SDS011;21241;51.828;19.574;2023-05-29T06:43:13;3.40;;;2.40;;
35056;SDS011;21241;51.828;19.574;2023-05-29T06:45:46;3.30;;;2.10;;
35056;SDS011;21241;51.828;19.574;2023-05-29T06:48:14;2.80;;;2.30;;
35056;SDS011;21241;51.828;19.574;2023-05-29T06:50:42;4.50;;;2.30;;
35056;SDS011;21241;51.828;19.574;2023-05-29T06:53:34;3.40;;;2.60;;
35056;SDS011;21241;51.828;19.574;2023-05-29T06:56:03;4.00;;;2.70;;
35056;SDS011;21241;51.828;19.574;2023-05-29T06:58:33;4.50;;;2.40;;
35056;SDS011;21241;51.828;19.574;2023-05-29T07:01:01;4.10;;;2.40;;
35056;SDS011;21241;51.828;19.574;2023-05-29T07:03:35;5.30;;;2.30;;
35056;SDS011;21241;51.828;19.574;2023-05-29T07:06:04;5.70;;;2.40;;
35056;SDS011;21241;51.828;19.574;2023-05-29T07:08:33;4.00;;;2.40;;
35056;SDS011;21241;51.828;19.574;2023-05-29T07:11:01;4.10;;;2.60;;
35056;SDS011;21241;51.828;19.574;2023-05-29T07:13:29;3.30;;;2.40;;
35056;SDS011;21241;51.828;19.574;2023-05-29T07:15:57;3.50;;;2.40;;
35056;SDS011;21241;51.828;19.574;2023-05-29T07:18:33;3.60;;;2.40;;
35056;SDS011;21241;51.828;19.574;2023-05-29T07:21:01;3.80;;;2.50;;
35056;SDS011;21241;51.828;19.574;2023-05-29T07:23:30;5.20;;;2.70;;
35056;SDS011;21241;51.828;19.574;2023-05-29T07:25:58;2.90;;;2.30;;
35056;SDS011;21241;51.828;19.574;2023-05-29T07:28:28;4.50;;;2.50;;
35056;SDS011;21241;51.828;19.574;2023-05-29T07:30:56;5.00;;;2.30;;
35056;SDS011;21241;51.828;19.574;2023-05-29T07:33:24;2.70;;;2.10;;
35056;SDS011;21241;51.828;19.574;2023-05-29T07:35:54;3.00;;;2.40;;
35056;SDS011;21241;51.828;19.574;2023-05-29T07:38:22;4.80;;;2.60;;
35056;SDS011;21241;51.828;19.574;2023-05-29T07:40:51;7.20;;;2.50;;
35056;SDS011;21241;51.828;19.574;2023-05-29T07:43:30;2.50;;;2.20;;
35056;SDS011;21241;51.828;19.574;2023-05-29T07:46:00;3.10;;;2.70;;
35056;SDS011;21241;51.828;19.574;2023-05-29T07:48:29;2.50;;;2.20;;
35056;SDS011;21241;51.828;19.574;2023-05-29T07:50:57;2.80;;;2.40;;
35056;SDS011;21241;51.828;19.574;2023-05-29T07:53:27;3.10;;;2.40;;
35056;SDS011;21241;51.828;19.574;2023-05-29T07:55:56;4.40;;;2.10;;
35056;SDS011;21241;51.828;19.574;2023-05-29T07:58:24;3.00;;;2.50;;
35056;SDS011;21241;51.828;19.574;2023-05-29T08:00:52;3.00;;;2.70;;
35056;SDS011;21241;51.828;19.574;2023-05-29T08:03:20;3.50;;;2.80;;
35056;SDS011;21241;51.828;19.574;2023-05-29T08:06:09;4.60;;;2.70;;
35056;SDS011;21241;51.828;19.574;2023-05-29T08:08:37;6.50;;;2.90;;
35056;SDS011;21241;51.828;19.574;2023-05-29T08:11:05;4.20;;;2.70;;
35056;SDS011;21241;51.828;19.574;2023-05-29T08:13:34;3.00;;;2.60;;
35056;SDS011;21241;51.828;19.574;2023-05-29T08:16:02;3.10;;;2.70;;
35056;SDS011;21241;51.828;19.574;2023-05-29T08:18:31;3.40;;;2.60;;
35056;SDS011;21241;51.828;19.574;2023-05-29T08:21:00;3.20;;;2.80;;
35056;SDS011;21241;51.828;19.574;2023-05-29T08:23:28;4.10;;;3.00;;
35056;SDS011;21241;51.828;19.574;2023-05-29T08:25:56;3.20;;;2.80;;
35056;SDS011;21241;51.828;19.574;2023-05-29T08:28:24;3.00;;;2.70;;
35056;SDS011;21241;51.828;19.574;2023-05-29T08:30:53;5.90;;;2.90;;
35056;SDS011;21241;51.828;19.574;2023-05-29T08:33:22;4.50;;;2.90;;
35056;SDS011;21241;51.828;19.574;2023-05-29T08:35:50;2.80;;;2.60;;
35056;SDS011;21241;51.828;19.574;2023-05-29T08:38:17;2.60;;;2.40;;
35056;SDS011;21241;51.828;19.574;2023-05-29T08:40:45;3.20;;;2.60;;
35056;SDS011;21241;51.828;19.574;2023-05-29T08:45:50;4.60;;;3.20;;
35056;SDS011;21241;51.828;19.574;2023-05-29T08:48:22;3.30;;;2.60;;
35056;SDS011;21241;51.828;19.574;2023-05-29T08:50:52;2.60;;;2.40;;
35056;SDS011;21241;51.828;19.574;2023-05-29T08:53:22;4.00;;;3.00;;
35056;SDS011;21241;51.828;19.574;2023-05-29T08:55:51;5.90;;;2.70;;
35056;SDS011;21241;51.828;19.574;2023-05-29T08:58:20;3.60;;;3.00;;
35056;SDS011;21241;51.828;19.574;2023-05-29T09:00:49;5.10;;;3.00;;
35056;SDS011;21241;51.828;19.574;2023-05-29T09:03:18;3.00;;;2.80;;
35056;SDS011;21241;51.828;19.574;2023-05-29T09:05:48;3.60;;;2.60;;
35056;SDS011;21241;51.828;19.574;2023-05-29T09:08:16;4.20;;;3.40;;
35056;SDS011;21241;51.828;19.574;2023-05-29T09:10:44;2.90;;;2.70;;
35056;SDS011;21241;51.828;19.574;2023-05-29T09:13:13;2.60;;;2.40;;
35056;SDS011;21241;51.828;19.574;2023-05-29T09:15:42;4.80;;;3.10;;
35056;SDS011;21241;51.828;19.574;2023-05-29T09:18:11;3.40;;;2.80;;
35056;SDS011;21241;51.828;19.574;2023-05-29T09:20:39;3.70;;;2.90;;
35056;SDS011;21241;51.828;19.574;2023-05-29T09:23:08;3.00;;;2.70;;
35056;SDS011;21241;51.828;19.574;2023-05-29T09:25:40;5.30;;;2.90;;
35056;SDS011;21241;51.828;19.574;2023-05-29T09:28:11;2.90;;;2.40;;
35056;SDS011;21241;51.828;19.574;2023-05-29T09:30:45;3.90;;;2.80;;
35056;SDS011;21241;51.828;19.574;2023-05-29T09:33:15;3.10;;;2.40;;
35056;SDS011;21241;51.828;19.574;2023-05-29T09:35:44;3.00;;;2.60;;
35056;SDS011;21241;51.828;19.574;2023-05-29T09:38:15;3.00;;;2.80;;
35056;SDS011;21241;51.828;19.574;2023-05-29T09:41:03;2.90;;;2.70;;
35056;SDS011;21241;51.828;19.574;2023-05-29T09:43:32;3.70;;;2.70;;
35056;SDS011;21241;51.828;19.574;2023-05-29T09:46:01;3.40;;;2.50;;
35056;SDS011;21241;51.828;19.574;2023-05-29T09:48:30;4.30;;;3.20;;
35056;SDS011;21241;51.828;19.574;2023-05-29T09:51:00;3.10;;;2.60;;
35056;SDS011;21241;51.828;19.574;2023-05-29T09:53:30;3.00;;;2.40;;
35056;SDS011;21241;51.828;19.574;2023-05-29T09:55:58;3.20;;;2.70;;
35056;SDS011;21241;51.828;19.574;2023-05-29T09:58:27;3.00;;;2.60;;
35056;SDS011;21241;51.828;19.574;2023-05-29T10:00:56;3.20;;;2.90;;
35056;SDS011;21241;51.828;19.574;2023-05-29T10:03:26;3.40;;;2.80;;
35056;SDS011;21241;51.828;19.574;2023-05-29T10:05:57;3.80;;;3.00;;
35056;SDS011;21241;51.828;19.574;2023-05-29T10:08:25;4.70;;;2.90;;
35056;SDS011;21241;51.828;19.574;2023-05-29T10:11:02;4.50;;;3.10;;
35056;SDS011;21241;51.828;19.574;2023-05-29T10:13:34;4.60;;;3.60;;
35056;SDS011;21241;51.828;19.574;2023-05-29T10:16:05;4.30;;;3.10;;
35056;SDS011;21241;51.828;19.574;2023-05-29T10:18:37;4.10;;;3.20;;
35056;SDS011;21241;51.828;19.574;2023-05-29T10:21:06;3.40;;;2.80;;
35056;SDS011;21241;51.828;19.574;2023-05-29T10:23:35;4.50;;;2.90;;
35056;SDS011;21241;51.828;19.574;2023-05-29T10:26:12;3.10;;;2.80;;
35056;SDS011;21241;51.828;19.574;2023-05-29T10:28:44;4.80;;;2.70;;
35056;SDS011;21241;51.828;19.574;2023-05-29T10:31:16;2.80;;;2.60;;
35056;SDS011;21241;51.828;19.574;2023-05-29T10:33:52;3.20;;;2.70;;
35056;SDS011;21241;51.828;19.574;2023-05-29T10:36:29;3.10;;;2.80;;
35056;SDS011;21241;51.828;19.574;2023-05-29T10:39:03;2.90;;;2.60;;
35056;SDS011;21241;51.828;19.574;2023-05-29T10:41:31;3.70;;;2.80;;
35056;SDS011;21241;51.828;19.574;2023-05-29T10:49:29;4.30;;;3.20;;
35056;SDS011;21241;51.828;19.574;2023-05-29T10:51:57;4.90;;;3.00;;
35056;SDS011;21241;51.828;19.574;2023-05-29T10:54:29;4.90;;;3.10;;
35056;SDS011;21241;51.828;19.574;2023-05-29T10:57:07;3.10;;;2.80;;
35056;SDS011;21241;51.828;19.574;2023-05-29T10:59:36;4.80;;;2.70;;
35056;SDS011;21241;51.828;19.574;2023-05-29T11:02:04;4.30;;;2.90;;
35056;SDS011;21241;51.828;19.574;2023-05-29T11:04:35;4.20;;;2.80;;
35056;SDS011;21241;51.828;19.574;2023-05-29T11:07:04;3.60;;;2.60;;
35056;SDS011;21241;51.828;19.574;2023-05-29T11:14:56;3.10;;;2.80;;
35056;SDS011;21241;51.828;19.574;2023-05-29T11:20:07;3.70;;;2.70;;
35056;SDS011;21241;51.828;19.574;2023-05-29T11:22:51;7.10;;;2.70;;
35056;SDS011;21241;51.828;19.574;2023-05-29T11:25:36;5.80;;;2.80;;
35056;SDS011;21241;51.828;19.574;2023-05-29T11:28:04;3.00;;;2.70;;
35056;SDS011;21241;51.828;19.574;2023-05-29T11:30:44;4.80;;;2.70;;
35056;SDS011;21241;51.828;19.574;2023-05-29T11:33:24;4.00;;;3.00;;
35056;SDS011;21241;51.828;19.574;2023-05-29T15:33:04;3.70;;;3.10;;
35056;SDS011;21241;51.828;19.574;2023-05-29T15:35:36;4.00;;;3.60;;
35056;SDS011;21241;51.828;19.574;2023-05-29T15:38:05;4.00;;;3.40;;
35056;SDS011;21241;51.828;19.574;2023-05-29T15:40:33;4.50;;;3.50;;
35056;SDS011;21241;51.828;19.574;2023-05-29T15:43:00;4.90;;;3.70;;
35056;SDS011;21241;51.828;19.574;2023-05-29T15:45:28;3.90;;;3.60;;
35056;SDS011;21241;51.828;19.574;2023-05-29T15:47:57;3.90;;;3.60;;
35056;SDS011;21241;51.828;19.574;2023-05-29T15:50:25;3.40;;;3.20;;
35056;SDS011;21241;51.828;19.574;2023-05-29T15:52:52;5.50;;;3.70;;
35056;SDS011;21241;51.828;19.574;2023-05-29T15:55:23;4.40;;;3.80;;
35056;SDS011;21241;51.828;19.574;2023-05-29T15:57:51;5.40;;;3.90;;
35056;SDS011;21241;51.828;19.574;2023-05-29T16:00:19;4.90;;;3.70;;
35056;SDS011;21241;51.828;19.574;2023-05-29T16:02:48;4.90;;;3.40;;
35056;SDS011;21241;51.828;19.574;2023-05-29T16:05:18;3.70;;;3.40;;
35056;SDS011;21241;51.828;19.574;2023-05-29T16:07:45;4.30;;;3.80;;
35056;SDS011;21241;51.828;19.574;2023-05-29T16:10:16;4.20;;;3.80;;
35056;SDS011;21241;51.828;19.574;2023-05-29T16:12:44;4.00;;;3.50;;
35056;SDS011;21241;51.828;19.574;2023-05-29T16:15:13;4.00;;;3.40;;
35056;SDS011;21241;51.828;19.574;2023-05-29T16:17:41;5.60;;;3.90;;
35056;SDS011;21241;51.828;19.574;2023-05-29T16:20:09;3.60;;;3.30;;
35056;SDS011;21241;51.828;19.574;2023-05-29T16:22:38;3.80;;;3.30;;
35056;SDS011;21241;51.828;19.574;2023-05-29T16:25:09;3.50;;;3.30;;
35056;SDS011;21241;51.828;19.574;2023-05-29T16:27:38;5.60;;;3.40;;
35056;SDS011;21241;51.828;19.574;2023-05-29T16:30:06;6.00;;;3.50;;
35056;SDS011;21241;51.828;19.574;2023-05-29T16:32:35;4.30;;;3.60;;
35056;SDS011;21241;51.828;19.574;2023-05-29T16:35:03;3.50;;;3.20;;
35056;SDS011;21241;51.828;19.574;2023-05-29T16:37:32;4.00;;;3.40;;
35056;SDS011;21241;51.828;19.574;2023-05-29T16:39:59;3.70;;;3.30;;
35056;SDS011;21241;51.828;19.574;2023-05-29T16:42:27;4.80;;;3.70;;
35056;SDS011;21241;51.828;19.574;2023-05-29T16:44:55;4.30;;;3.30;;
35056;SDS011;21241;51.828;19.574;2023-05-29T16:47:23;3.40;;;3.20;;
35056;SDS011;21241;51.828;19.574;2023-05-29T16:49:51;4.40;;;3.30;;
35056;SDS011;21241;51.828;19.574;2023-05-29T16:52:18;4.30;;;3.30;;
35056;SDS011;21241;51.828;19.574;2023-05-29T16:54:49;3.90;;;3.60;;
35056;SDS011;21241;51.828;19.574;2023-05-29T16:57:17;5.30;;;3.60;;
35056;SDS011;21241;51.828;19.574;2023-05-29T16:59:49;5.20;;;4.20;;
35056;SDS011;21241;51.828;19.574;2023-05-29T17:02:17;4.70;;;3.20;;
35056;SDS011;21241;51.828;19.574;2023-05-29T17:04:47;4.90;;;3.40;;
35056;SDS011;21241;51.828;19.574;2023-05-29T17:07:15;5.70;;;3.60;;
35056;SDS011;21241;51.828;19.574;2023-05-29T17:09:43;4.10;;;3.30;;
35056;SDS011;21241;51.828;19.574;2023-05-29T17:12:11;4.30;;;3.80;;
35056;SDS011;21241;51.828;19.574;2023-05-29T17:14:39;4.40;;;4.00;;
35056;SDS011;21241;51.828;19.574;2023-05-29T17:17:07;6.60;;;3.80;;
35056;SDS011;21241;51.828;19.574;2023-05-29T17:19:35;4.30;;;3.90;;
35056;SDS011;21241;51.828;19.574;2023-05-29T17:22:03;5.10;;;4.60;;
35056;SDS011;21241;51.828;19.574;2023-05-29T17:24:31;8.10;;;4.90;;
35056;SDS011;21241;51.828;19.574;2023-05-29T17:26:59;5.80;;;4.90;;
35056;SDS011;21241;51.828;19.574;2023-05-29T17:29:28;8.40;;;5.50;;
35056;SDS011;21241;51.828;19.574;2023-05-29T17:31:55;6.50;;;4.90;;
35056;SDS011;21241;51.828;19.574;2023-05-29T17:34:24;6.20;;;5.00;;
35056;SDS011;21241;51.828;19.574;2023-05-29T17:36:51;5.60;;;5.10;;
35056;SDS011;21241;51.828;19.574;2023-05-29T17:39:19;5.50;;;4.70;;
35056;SDS011;21241;51.828;19.574;2023-05-29T17:41:46;4.90;;;4.40;;
35056;SDS011;21241;51.828;19.574;2023-05-29T17:44:14;7.80;;;5.30;;
35056;SDS011;21241;51.828;19.574;2023-05-29T17:46:42;7.60;;;5.10;;
35056;SDS011;21241;51.828;19.574;2023-05-29T17:49:10;6.20;;;5.40;;
35056;SDS011;21241;51.828;19.574;2023-05-29T17:51:38;5.30;;;4.60;;
35056;SDS011;21241;51.828;19.574;2023-05-29T17:54:06;7.10;;;5.50;;
35056;SDS011;21241;51.828;19.574;2023-05-29T17:56:38;7.10;;;5.40;;
35056;SDS011;21241;51.828;19.574;2023-05-29T17:59:06;7.50;;;5.00;;
35056;SDS011;21241;51.828;19.574;2023-05-29T18:01:34;11.10;;;5.90;;
35056;SDS011;21241;51.828;19.574;2023-05-29T18:04:03;6.00;;;5.10;;
35056;SDS011;21241;51.828;19.574;2023-05-29T18:06:32;7.70;;;5.20;;
35056;SDS011;21241;51.828;19.574;2023-05-29T18:09:03;7.60;;;5.30;;
35056;SDS011;21241;51.828;19.574;2023-05-29T18:11:33;4.90;;;4.30;;
35056;SDS011;21241;51.828;19.574;2023-05-29T18:14:00;8.90;;;4.80;;
35056;SDS011;21241;51.828;19.574;2023-05-29T18:16:35;8.10;;;5.10;;
35056;SDS011;21241;51.828;19.574;2023-05-29T18:19:04;7.00;;;5.40;;
35056;SDS011;21241;51.828;19.574;2023-05-29T18:21:33;5.80;;;5.30;;
35056;SDS011;21241;51.828;19.574;2023-05-29T18:24:05;6.60;;;4.70;;
35056;SDS011;21241;51.828;19.574;2023-05-29T18:26:35;6.00;;;5.40;;
35056;SDS011;21241;51.828;19.574;2023-05-29T18:29:02;8.50;;;5.70;;
35056;SDS011;21241;51.828;19.574;2023-05-29T18:31:30;6.50;;;5.80;;
35056;SDS011;21241;51.828;19.574;2023-05-29T18:33:58;6.80;;;5.40;;
35056;SDS011;21241;51.828;19.574;2023-05-29T18:36:27;8.70;;;5.50;;
35056;SDS011;21241;51.828;19.574;2023-05-29T18:38:55;7.30;;;5.70;;
35056;SDS011;21241;51.828;19.574;2023-05-29T18:41:25;7.40;;;5.70;;
35056;SDS011;21241;51.828;19.574;2023-05-29T18:43:53;6.50;;;5.80;;
35056;SDS011;21241;51.828;19.574;2023-05-29T18:46:21;6.50;;;5.90;;
35056;SDS011;21241;51.828;19.574;2023-05-29T18:48:51;8.30;;;7.50;;
35056;SDS011;21241;51.828;19.574;2023-05-29T18:51:18;8.20;;;7.40;;
35056;SDS011;21241;51.828;19.574;2023-05-29T18:53:46;7.80;;;6.70;;
35056;SDS011;21241;51.828;19.574;2023-05-29T18:56:14;9.00;;;6.70;;
35056;SDS011;21241;51.828;19.574;2023-05-29T18:58:42;7.60;;;6.00;;
35056;SDS011;21241;51.828;19.574;2023-05-29T19:01:10;7.70;;;6.70;;
35056;SDS011;21241;51.828;19.574;2023-05-29T19:03:58;7.50;;;6.80;;
35056;SDS011;21241;51.828;19.574;2023-05-29T19:06:28;7.80;;;6.50;;